sensor_id;sensor_type;location;lat;lon;timestamp;temperature;humidity
75838;SHT30;64480;52.040;113.502;2023-07-20T00:01:44;30.04;31.06
75838;SHT30;64480;52.040;113.502;2023-07-20T00:05:05;29.85;31.24
75838;SHT30;64480;52.040;113.502;2023-07-20T00:08:09;29.82;31.19
75838;SHT30;64480;52.040;113.502;2023-07-20T00:11:13;30.28;30.79
75838;SHT30;64480;52.040;113.502;2023-07-20T00:14:17;29.94;31.01
75838;SHT30;64480;52.040;113.502;2023-07-20T00:17:21;29.56;31.61
75838;SHT30;64480;52.040;113.502;2023-07-20T00:20:25;30.19;30.90
75838;SHT30;64480;52.040;113.502;2023-07-20T00:23:28;29.88;30.86
75838;SHT30;64480;52.040;113.502;2023-07-20T00:26:34;30.28;30.09
75838;SHT30;64480;52.040;113.502;2023-07-20T00:29:37;29.95;31.41
75838;SHT30;64480;52.040;113.502;2023-07-20T00:32:42;30.16;31.17
75838;SHT30;64480;52.040;113.502;2023-07-20T00:35:46;30.46;31.12
75838;SHT30;64480;52.040;113.502;2023-07-20T00:38:51;31.45;29.43
75838;SHT30;64480;52.040;113.502;2023-07-20T00:41:54;31.57;29.40
75838;SHT30;64480;52.040;113.502;2023-07-20T00:44:59;30.49;30.46
75838;SHT30;64480;52.040;113.502;2023-07-20T00:48:05;30.74;30.43
75838;SHT30;64480;52.040;113.502;2023-07-20T00:51:11;30.57;30.50
75838;SHT30;64480;52.040;113.502;2023-07-20T00:54:15;28.13;34.24
75838;SHT30;64480;52.040;113.502;2023-07-20T00:57:19;27.03;35.07
75838;SHT30;64480;52.040;113.502;2023-07-20T01:00:22;25.40;38.51
75838;SHT30;64480;52.040;113.502;2023-07-20T01:03:26;24.81;40.17
75838;SHT30;64480;52.040;113.502;2023-07-20T01:06:41;24.52;40.52
75838;SHT30;64480;52.040;113.502;2023-07-20T01:10:10;24.34;40.35
75838;SHT30;64480;52.040;113.502;2023-07-20T01:13:16;23.96;41.01
75838;SHT30;64480;52.040;113.502;2023-07-20T01:16:22;23.23;42.34
75838;SHT30;64480;52.040;113.502;2023-07-20T01:19:29;22.86;43.29
75838;SHT30;64480;52.040;113.502;2023-07-20T01:22:56;22.86;43.42
75838;SHT30;64480;52.040;113.502;2023-07-20T01:30:02;22.41;44.07
75838;SHT30;64480;52.040;113.502;2023-07-20T01:33:07;22.45;43.96
75838;SHT30;64480;52.040;113.502;2023-07-20T01:36:12;22.43;43.75
75838;SHT30;64480;52.040;113.502;2023-07-20T01:39:19;22.54;42.93
75838;SHT30;64480;52.040;113.502;2023-07-20T01:42:23;22.58;43.70
75838;SHT30;64480;52.040;113.502;2023-07-20T01:45:30;22.86;44.45
75838;SHT30;64480;52.040;113.502;2023-07-20T01:48:34;22.83;44.20
75838;SHT30;64480;52.040;113.502;2023-07-20T01:51:37;22.65;44.55
75838;SHT30;64480;52.040;113.502;2023-07-20T01:54:41;22.31;45.22
75838;SHT30;64480;52.040;113.502;2023-07-20T01:58:09;22.31;45.87
75838;SHT30;64480;52.040;113.502;2023-07-20T02:01:44;22.48;44.66
75838;SHT30;64480;52.040;113.502;2023-07-20T02:04:48;22.40;44.62
75838;SHT30;64480;52.040;113.502;2023-07-20T02:07:51;22.58;43.93
75838;SHT30;64480;52.040;113.502;2023-07-20T02:11:14;22.66;43.31
75838;SHT30;64480;52.040;113.502;2023-07-20T02:14:17;22.88;43.61
75838;SHT30;64480;52.040;113.502;2023-07-20T02:17:30;22.72;43.21
75838;SHT30;64480;52.040;113.502;2023-07-20T02:20:33;22.61;43.35
75838;SHT30;64480;52.040;113.502;2023-07-20T02:23:37;22.69;42.62
75838;SHT30;64480;52.040;113.502;2023-07-20T02:26:46;22.76;42.15
75838;SHT30;64480;52.040;113.502;2023-07-20T02:29:51;22.73;41.82
75838;SHT30;64480;52.040;113.502;2023-07-20T02:32:55;22.88;42.68
75838;SHT30;64480;52.040;113.502;2023-07-20T02:36:02;22.98;41.36
75838;SHT30;64480;52.040;113.502;2023-07-20T02:39:05;23.14;41.16
75838;SHT30;64480;52.040;113.502;2023-07-20T02:42:09;23.14;40.85
75838;SHT30;64480;52.040;113.502;2023-07-20T02:45:13;23.13;41.74
75838;SHT30;64480;52.040;113.502;2023-07-20T02:48:16;23.41;42.55
75838;SHT30;64480;52.040;113.502;2023-07-20T02:51:22;23.63;41.80
75838;SHT30;64480;52.040;113.502;2023-07-20T02:54:26;23.68;40.98
75838;SHT30;64480;52.040;113.502;2023-07-20T02:57:29;23.73;41.39
75838;SHT30;64480;52.040;113.502;2023-07-20T03:00:33;23.79;41.77
75838;SHT30;64480;52.040;113.502;2023-07-20T03:03:36;23.85;41.49
75838;SHT30;64480;52.040;113.502;2023-07-20T03:06:42;23.86;41.38
75838;SHT30;64480;52.040;113.502;2023-07-20T03:09:45;23.73;41.67
75838;SHT30;64480;52.040;113.502;2023-07-20T03:12:49;23.58;42.09
75838;SHT30;64480;52.040;113.502;2023-07-20T03:15:53;23.43;42.21
75838;SHT30;64480;52.040;113.502;2023-07-20T03:18:57;23.62;42.25
75838;SHT30;64480;52.040;113.502;2023-07-20T03:22:00;23.45;42.46
75838;SHT30;64480;52.040;113.502;2023-07-20T03:25:06;23.50;42.37
75838;SHT30;64480;52.040;113.502;2023-07-20T03:28:11;23.54;41.92
75838;SHT30;64480;52.040;113.502;2023-07-20T03:31:15;23.52;41.68
75838;SHT30;64480;52.040;113.502;2023-07-20T03:34:19;23.58;41.67
75838;SHT30;64480;52.040;113.502;2023-07-20T03:37:23;23.62;40.23
75838;SHT30;64480;52.040;113.502;2023-07-20T03:40:26;23.82;39.85
75838;SHT30;64480;52.040;113.502;2023-07-20T03:43:30;23.90;39.07
75838;SHT30;64480;52.040;113.502;2023-07-20T03:46:33;23.88;39.45
75838;SHT30;64480;52.040;113.502;2023-07-20T03:49:38;23.85;40.38
75838;SHT30;64480;52.040;113.502;2023-07-20T03:52:41;23.88;39.35
75838;SHT30;64480;52.040;113.502;2023-07-20T03:55:45;23.89;38.78
75838;SHT30;64480;52.040;113.502;2023-07-20T03:58:49;23.88;38.91
75838;SHT30;64480;52.040;113.502;2023-07-20T04:01:53;23.89;37.57
75838;SHT30;64480;52.040;113.502;2023-07-20T04:04:56;23.79;36.90
75838;SHT30;64480;52.040;113.502;2023-07-20T04:07:59;23.90;38.31
75838;SHT30;64480;52.040;113.502;2023-07-20T04:11:03;24.06;39.03
75838;SHT30;64480;52.040;113.502;2023-07-20T04:14:06;24.07;39.30
75838;SHT30;64480;52.040;113.502;2023-07-20T04:17:10;24.02;38.99
75838;SHT30;64480;52.040;113.502;2023-07-20T04:20:16;24.13;36.64
75838;SHT30;64480;52.040;113.502;2023-07-20T04:23:21;24.21;35.48
75838;SHT30;64480;52.040;113.502;2023-07-20T04:26:26;24.27;33.68
75838;SHT30;64480;52.040;113.502;2023-07-20T04:29:30;24.21;31.60
75838;SHT30;64480;52.040;113.502;2023-07-20T04:32:33;24.10;34.04
75838;SHT30;64480;52.040;113.502;2023-07-20T04:35:46;24.05;34.59
75838;SHT30;64480;52.040;113.502;2023-07-20T04:38:57;24.28;34.79
75838;SHT30;64480;52.040;113.502;2023-07-20T04:42:08;24.60;34.39
75838;SHT30;64480;52.040;113.502;2023-07-20T04:45:11;24.68;33.14
75838;SHT30;64480;52.040;113.502;2023-07-20T04:48:16;24.75;32.78
75838;SHT30;64480;52.040;113.502;2023-07-20T04:51:26;24.71;33.12
75838;SHT30;64480;52.040;113.502;2023-07-20T04:54:30;24.65;33.64
75838;SHT30;64480;52.040;113.502;2023-07-20T04:57:33;24.69;34.37
75838;SHT30;64480;52.040;113.502;2023-07-20T05:00:38;24.81;33.99
75838;SHT30;64480;52.040;113.502;2023-07-20T05:03:42;24.90;32.02
75838;SHT30;64480;52.040;113.502;2023-07-20T05:06:46;24.96;33.34
75838;SHT30;64480;52.040;113.502;2023-07-20T05:09:50;24.92;31.44
75838;SHT30;64480;52.040;113.502;2023-07-20T05:12:53;24.81;32.06
75838;SHT30;64480;52.040;113.502;2023-07-20T05:15:57;24.89;33.98
75838;SHT30;64480;52.040;113.502;2023-07-20T05:19:01;24.99;32.11
75838;SHT30;64480;52.040;113.502;2023-07-20T05:22:05;24.88;32.75
75838;SHT30;64480;52.040;113.502;2023-07-20T05:25:09;24.79;32.48
75838;SHT30;64480;52.040;113.502;2023-07-20T05:28:13;24.71;32.94
75838;SHT30;64480;52.040;113.502;2023-07-20T05:31:16;24.73;33.44
75838;SHT30;64480;52.040;113.502;2023-07-20T05:34:20;24.72;32.85
75838;SHT30;64480;52.040;113.502;2023-07-20T05:37:24;24.83;31.61
75838;SHT30;64480;52.040;113.502;2023-07-20T05:40:27;24.79;31.32
75838;SHT30;64480;52.040;113.502;2023-07-20T05:43:30;24.89;30.34
75838;SHT30;64480;52.040;113.502;2023-07-20T05:46:34;24.79;31.37
75838;SHT30;64480;52.040;113.502;2023-07-20T05:49:58;24.99;31.87
75838;SHT30;64480;52.040;113.502;2023-07-20T05:53:01;25.00;31.14
75838;SHT30;64480;52.040;113.502;2023-07-20T05:56:05;24.90;31.45
75838;SHT30;64480;52.040;113.502;2023-07-20T05:59:08;25.09;33.05
75838;SHT30;64480;52.040;113.502;2023-07-20T06:02:12;25.26;32.04
75838;SHT30;64480;52.040;113.502;2023-07-20T06:05:16;25.33;32.47
75838;SHT30;64480;52.040;113.502;2023-07-20T06:08:19;25.35;32.38
75838;SHT30;64480;52.040;113.502;2023-07-20T06:11:23;25.41;33.44
75838;SHT30;64480;52.040;113.502;2023-07-20T06:14:27;25.40;33.52
75838;SHT30;64480;52.040;113.502;2023-07-20T06:17:31;25.33;31.67
75838;SHT30;64480;52.040;113.502;2023-07-20T06:20:34;25.23;33.26
75838;SHT30;64480;52.040;113.502;2023-07-20T06:23:39;25.34;33.15
75838;SHT30;64480;52.040;113.502;2023-07-20T06:26:42;25.38;32.70
75838;SHT30;64480;52.040;113.502;2023-07-20T06:29:46;25.35;32.26
75838;SHT30;64480;52.040;113.502;2023-07-20T06:32:49;25.40;32.20
75838;SHT30;64480;52.040;113.502;2023-07-20T06:35:53;25.50;32.15
75838;SHT30;64480;52.040;113.502;2023-07-20T06:38:57;25.51;32.71
75838;SHT30;64480;52.040;113.502;2023-07-20T06:42:03;25.52;32.02
75838;SHT30;64480;52.040;113.502;2023-07-20T06:45:07;25.48;31.52
75838;SHT30;64480;52.040;113.502;2023-07-20T06:48:11;25.50;32.90
75838;SHT30;64480;52.040;113.502;2023-07-20T06:51:15;25.60;32.87
75838;SHT30;64480;52.040;113.502;2023-07-20T06:54:19;25.57;32.73
75838;SHT30;64480;52.040;113.502;2023-07-20T06:57:25;25.60;33.95
75838;SHT30;64480;52.040;113.502;2023-07-20T07:00:29;25.62;33.08
75838;SHT30;64480;52.040;113.502;2023-07-20T07:03:32;25.78;33.11
75838;SHT30;64480;52.040;113.502;2023-07-20T07:06:36;25.82;34.02
75838;SHT30;64480;52.040;113.502;2023-07-20T07:09:41;25.88;33.21
75838;SHT30;64480;52.040;113.502;2023-07-20T07:12:45;25.82;32.65
75838;SHT30;64480;52.040;113.502;2023-07-20T07:15:48;25.77;32.70
75838;SHT30;64480;52.040;113.502;2023-07-20T07:18:52;25.75;32.31
75838;SHT30;64480;52.040;113.502;2023-07-20T07:22:01;25.88;33.09
75838;SHT30;64480;52.040;113.502;2023-07-20T07:25:06;25.92;31.78
75838;SHT30;64480;52.040;113.502;2023-07-20T07:28:10;25.67;32.17
75838;SHT30;64480;52.040;113.502;2023-07-20T07:31:14;25.70;31.58
75838;SHT30;64480;52.040;113.502;2023-07-20T07:34:17;25.52;32.32
75838;SHT30;64480;52.040;113.502;2023-07-20T07:37:21;25.65;31.73
75838;SHT30;64480;52.040;113.502;2023-07-20T07:40:24;25.77;31.92
75838;SHT30;64480;52.040;113.502;2023-07-20T07:43:28;25.86;31.52
75838;SHT30;64480;52.040;113.502;2023-07-20T07:46:31;25.96;31.71
75838;SHT30;64480;52.040;113.502;2023-07-20T07:49:35;25.95;31.67
75838;SHT30;64480;52.040;113.502;2023-07-20T07:52:39;26.03;31.86
75838;SHT30;64480;52.040;113.502;2023-07-20T07:55:42;26.02;31.43
75838;SHT30;64480;52.040;113.502;2023-07-20T07:58:46;26.15;31.48
75838;SHT30;64480;52.040;113.502;2023-07-20T08:01:49;26.16;31.39
75838;SHT30;64480;52.040;113.502;2023-07-20T08:04:53;26.05;30.09
75838;SHT30;64480;52.040;113.502;2023-07-20T08:07:56;25.90;31.04
75838;SHT30;64480;52.040;113.502;2023-07-20T08:11:00;25.98;31.40
75838;SHT30;64480;52.040;113.502;2023-07-20T08:14:08;26.13;31.22
75838;SHT30;64480;52.040;113.502;2023-07-20T08:17:12;26.16;31.89
75838;SHT30;64480;52.040;113.502;2023-07-20T08:20:17;26.22;31.80
75838;SHT30;64480;52.040;113.502;2023-07-20T08:23:21;26.19;31.63
75838;SHT30;64480;52.040;113.502;2023-07-20T08:26:24;26.20;30.54
75838;SHT30;64480;52.040;113.502;2023-07-20T08:29:28;26.19;30.42
75838;SHT30;64480;52.040;113.502;2023-07-20T08:32:32;26.22;31.14
75838;SHT30;64480;52.040;113.502;2023-07-20T08:35:36;26.20;30.79
75838;SHT30;64480;52.040;113.502;2023-07-20T08:38:40;26.10;31.26
75838;SHT30;64480;52.040;113.502;2023-07-20T08:41:44;26.02;30.79
75838;SHT30;64480;52.040;113.502;2023-07-20T08:44:48;25.93;31.63
75838;SHT30;64480;52.040;113.502;2023-07-20T08:47:54;25.90;31.37
75838;SHT30;64480;52.040;113.502;2023-07-20T08:50:59;25.86;31.91
75838;SHT30;64480;52.040;113.502;2023-07-20T08:54:03;25.82;31.98
75838;SHT30;64480;52.040;113.502;2023-07-20T08:57:07;25.82;31.83
75838;SHT30;64480;52.040;113.502;2023-07-20T09:00:13;25.82;31.75
75838;SHT30;64480;52.040;113.502;2023-07-20T09:03:17;25.84;31.81
75838;SHT30;64480;52.040;113.502;2023-07-20T09:06:22;25.70;31.29
75838;SHT30;64480;52.040;113.502;2023-07-20T09:09:26;25.67;32.07
75838;SHT30;64480;52.040;113.502;2023-07-20T09:12:29;25.52;31.38
75838;SHT30;64480;52.040;113.502;2023-07-20T09:15:33;25.41;32.16
75838;SHT30;64480;52.040;113.502;2023-07-20T09:18:36;25.41;32.37
75838;SHT30;64480;52.040;113.502;2023-07-20T09:21:40;25.45;32.85
75838;SHT30;64480;52.040;113.502;2023-07-20T09:24:44;25.58;32.34
75838;SHT30;64480;52.040;113.502;2023-07-20T09:27:49;25.54;32.34
75838;SHT30;64480;52.040;113.502;2023-07-20T09:30:54;25.57;32.61
75838;SHT30;64480;52.040;113.502;2023-07-20T09:34:00;25.52;32.09
75838;SHT30;64480;52.040;113.502;2023-07-20T09:37:03;25.45;32.22
75838;SHT30;64480;52.040;113.502;2023-07-20T09:40:08;25.44;32.37
75838;SHT30;64480;52.040;113.502;2023-07-20T09:43:16;25.40;31.93
75838;SHT30;64480;52.040;113.502;2023-07-20T09:46:23;25.34;32.18
75838;SHT30;64480;52.040;113.502;2023-07-20T09:49:30;25.40;31.95
75838;SHT30;64480;52.040;113.502;2023-07-20T09:52:53;25.47;32.69
75838;SHT30;64480;52.040;113.502;2023-07-20T09:56:00;25.38;32.14
75838;SHT30;64480;52.040;113.502;2023-07-20T09:59:04;25.43;32.21
75838;SHT30;64480;52.040;113.502;2023-07-20T10:02:24;25.40;32.28
75838;SHT30;64480;52.040;113.502;2023-07-20T10:05:33;25.31;31.79
75838;SHT30;64480;52.040;113.502;2023-07-20T10:08:41;25.27;32.57
75838;SHT30;64480;52.040;113.502;2023-07-20T10:11:53;25.34;32.08
75838;SHT30;64480;52.040;113.502;2023-07-20T10:15:33;25.30;32.78
75838;SHT30;64480;52.040;113.502;2023-07-20T10:22:03;25.15;32.44
75838;SHT30;64480;52.040;113.502;2023-07-20T10:25:21;25.07;33.38
75838;SHT30;64480;52.040;113.502;2023-07-20T10:28:26;25.02;32.11
75838;SHT30;64480;52.040;113.502;2023-07-20T10:31:30;25.06;32.75
75838;SHT30;64480;52.040;113.502;2023-07-20T10:34:33;24.99;32.00
75838;SHT30;64480;52.040;113.502;2023-07-20T10:37:50;24.99;32.59
75838;SHT30;64480;52.040;113.502;2023-07-20T10:40:55;24.90;32.69
75838;SHT30;64480;52.040;113.502;2023-07-20T10:44:08;24.92;32.34
75838;SHT30;64480;52.040;113.502;2023-07-20T10:47:16;24.92;31.56
75838;SHT30;64480;52.040;113.502;2023-07-20T10:50:21;24.86;31.66
75838;SHT30;64480;52.040;113.502;2023-07-20T10:53:25;24.86;31.98
75838;SHT30;64480;52.040;113.502;2023-07-20T10:56:29;24.81;30.89
75838;SHT30;64480;52.040;113.502;2023-07-20T11:02:49;24.72;32.03
75838;SHT30;64480;52.040;113.502;2023-07-20T11:05:53;24.65;32.23
75838;SHT30;64480;52.040;113.502;2023-07-20T11:12:18;24.58;31.22
75838;SHT30;64480;52.040;113.502;2023-07-20T11:15:22;24.52;32.19
75838;SHT30;64480;52.040;113.502;2023-07-20T11:18:26;24.55;32.78
75838;SHT30;64480;52.040;113.502;2023-07-20T11:21:36;24.50;33.12
75838;SHT30;64480;52.040;113.502;2023-07-20T11:24:58;24.50;33.57
75838;SHT30;64480;52.040;113.502;2023-07-20T11:28:01;24.40;33.54
75838;SHT30;64480;52.040;113.502;2023-07-20T11:31:05;24.35;33.84
75838;SHT30;64480;52.040;113.502;2023-07-20T11:34:19;24.31;34.06
75838;SHT30;64480;52.040;113.502;2023-07-20T11:37:23;24.21;34.12
75838;SHT30;64480;52.040;113.502;2023-07-20T11:40:27;24.12;34.83
75838;SHT30;64480;52.040;113.502;2023-07-20T11:43:31;24.05;34.79
75838;SHT30;64480;52.040;113.502;2023-07-20T11:46:35;23.99;35.04
75838;SHT30;64480;52.040;113.502;2023-07-20T11:49:43;23.95;34.82
75838;SHT30;64480;52.040;113.502;2023-07-20T11:52:47;23.90;35.12
75838;SHT30;64480;52.040;113.502;2023-07-20T11:55:51;23.90;34.90
75838;SHT30;64480;52.040;113.502;2023-07-20T11:58:59;23.83;34.79
75838;SHT30;64480;52.040;113.502;2023-07-20T12:02:05;23.75;35.04
75838;SHT30;64480;52.040;113.502;2023-07-20T12:05:09;23.63;35.21
75838;SHT30;64480;52.040;113.502;2023-07-20T12:08:15;23.52;35.31
75838;SHT30;64480;52.040;113.502;2023-07-20T12:11:32;23.41;35.38
75838;SHT30;64480;52.040;113.502;2023-07-20T12:14:35;23.30;35.62
75838;SHT30;64480;52.040;113.502;2023-07-20T12:17:42;23.24;36.10
75838;SHT30;64480;52.040;113.502;2023-07-20T12:20:47;23.11;36.86
75838;SHT30;64480;52.040;113.502;2023-07-20T12:23:50;22.93;40.41
75838;SHT30;64480;52.040;113.502;2023-07-20T12:26:58;22.65;41.92
75838;SHT30;64480;52.040;113.502;2023-07-20T12:30:01;22.40;42.69
75838;SHT30;64480;52.040;113.502;2023-07-20T12:33:07;22.18;43.36
75838;SHT30;64480;52.040;113.502;2023-07-20T12:36:11;22.01;43.83
75838;SHT30;64480;52.040;113.502;2023-07-20T12:39:15;21.85;43.90
75838;SHT30;64480;52.040;113.502;2023-07-20T12:42:18;21.73;44.02
75838;SHT30;64480;52.040;113.502;2023-07-20T12:45:22;21.58;44.45
75838;SHT30;64480;52.040;113.502;2023-07-20T12:48:25;21.44;44.92
75838;SHT30;64480;52.040;113.502;2023-07-20T12:51:29;21.27;45.71
75838;SHT30;64480;52.040;113.502;2023-07-20T12:54:32;21.08;45.74
75838;SHT30;64480;52.040;113.502;2023-07-20T12:57:37;20.96;45.85
75838;SHT30;64480;52.040;113.502;2023-07-20T13:00:40;20.86;46.36
75838;SHT30;64480;52.040;113.502;2023-07-20T13:03:44;20.68;46.24
75838;SHT30;64480;52.040;113.502;2023-07-20T13:06:51;20.56;46.71
75838;SHT30;64480;52.040;113.502;2023-07-20T13:09:54;20.45;46.74
75838;SHT30;64480;52.040;113.502;2023-07-20T13:12:59;20.29;46.97
75838;SHT30;64480;52.040;113.502;2023-07-20T13:16:04;20.20;47.66
75838;SHT30;64480;52.040;113.502;2023-07-20T13:19:10;20.07;47.57
75838;SHT30;64480;52.040;113.502;2023-07-20T13:22:14;19.98;48.04
75838;SHT30;64480;52.040;113.502;2023-07-20T13:25:18;19.86;48.15
75838;SHT30;64480;52.040;113.502;2023-07-20T13:28:24;19.77;48.18
75838;SHT30;64480;52.040;113.502;2023-07-20T13:31:27;19.74;48.57
75838;SHT30;64480;52.040;113.502;2023-07-20T13:34:34;19.63;49.03
75838;SHT30;64480;52.040;113.502;2023-07-20T13:37:39;19.52;49.33
75838;SHT30;64480;52.040;113.502;2023-07-20T13:40:44;19.41;49.34
75838;SHT30;64480;52.040;113.502;2023-07-20T13:43:47;19.28;49.85
75838;SHT30;64480;52.040;113.502;2023-07-20T13:46:51;19.14;49.86
75838;SHT30;64480;52.040;113.502;2023-07-20T13:50:14;19.04;49.77
75838;SHT30;64480;52.040;113.502;2023-07-20T13:53:20;18.99;50.22
75838;SHT30;64480;52.040;113.502;2023-07-20T13:56:28;18.91;52.57
75838;SHT30;64480;52.040;113.502;2023-07-20T13:59:31;18.84;54.50
75838;SHT30;64480;52.040;113.502;2023-07-20T14:02:35;18.77;55.25
75838;SHT30;64480;52.040;113.502;2023-07-20T14:05:42;18.73;55.03
75838;SHT30;64480;52.040;113.502;2023-07-20T14:08:52;18.66;55.07
75838;SHT30;64480;52.040;113.502;2023-07-20T14:11:59;18.53;54.80
75838;SHT30;64480;52.040;113.502;2023-07-20T14:15:34;18.48;55.96
75838;SHT30;64480;52.040;113.502;2023-07-20T14:18:50;18.35;56.51
75838;SHT30;64480;52.040;113.502;2023-07-20T14:21:54;18.27;56.94
75838;SHT30;64480;52.040;113.502;2023-07-20T14:24:58;18.21;57.24
75838;SHT30;64480;52.040;113.502;2023-07-20T14:28:02;18.11;57.26
75838;SHT30;64480;52.040;113.502;2023-07-20T14:31:06;18.04;57.43
75838;SHT30;64480;52.040;113.502;2023-07-20T14:34:09;17.93;57.52
75838;SHT30;64480;52.040;113.502;2023-07-20T14:37:13;17.79;57.64
75838;SHT30;64480;52.040;113.502;2023-07-20T14:40:18;17.72;57.85
75838;SHT30;64480;52.040;113.502;2023-07-20T14:43:21;17.67;57.69
75838;SHT30;64480;52.040;113.502;2023-07-20T14:46:28;17.67;57.84
75838;SHT30;64480;52.040;113.502;2023-07-20T14:49:44;17.57;58.38
75838;SHT30;64480;52.040;113.502;2023-07-20T14:53:15;17.45;58.92
75838;SHT30;64480;52.040;113.502;2023-07-20T14:56:23;17.38;58.88
75838;SHT30;64480;52.040;113.502;2023-07-20T14:59:32;17.25;59.04
75838;SHT30;64480;52.040;113.502;2023-07-20T15:02:36;17.18;58.92
75838;SHT30;64480;52.040;113.502;2023-07-20T15:05:48;17.08;59.60
75838;SHT30;64480;52.040;113.502;2023-07-20T15:08:53;16.95;60.33
75838;SHT30;64480;52.040;113.502;2023-07-20T15:11:57;16.88;60.83
75838;SHT30;64480;52.040;113.502;2023-07-20T15:15:06;16.80;60.86
75838;SHT30;64480;52.040;113.502;2023-07-20T15:18:10;16.81;60.72
75838;SHT30;64480;52.040;113.502;2023-07-20T15:21:13;16.79;60.40
75838;SHT30;64480;52.040;113.502;2023-07-20T15:24:17;16.67;60.55
75838;SHT30;64480;52.040;113.502;2023-07-20T15:27:20;16.60;60.99
75838;SHT30;64480;52.040;113.502;2023-07-20T15:30:24;16.49;61.52
75838;SHT30;64480;52.040;113.502;2023-07-20T15:33:31;16.44;61.74
75838;SHT30;64480;52.040;113.502;2023-07-20T15:36:35;16.36;62.14
75838;SHT30;64480;52.040;113.502;2023-07-20T15:39:38;16.38;62.08
75838;SHT30;64480;52.040;113.502;2023-07-20T15:42:41;16.29;62.45
75838;SHT30;64480;52.040;113.502;2023-07-20T15:45:47;16.22;62.54
75838;SHT30;64480;52.040;113.502;2023-07-20T15:48:53;16.18;62.66
75838;SHT30;64480;52.040;113.502;2023-07-20T15:51:57;16.18;62.50
75838;SHT30;64480;52.040;113.502;2023-07-20T15:55:00;16.10;62.74
75838;SHT30;64480;52.040;113.502;2023-07-20T15:58:06;16.08;62.78
